Thunder radar more information blitzortung!


Radar de pluja more information rain snow radar


Visita la nostra xarxa de llocs de meteo:

Template documentation
and downloads

And another site



No particular awareness of the weather is required.    There are no Weather-warnings

Pagina Historial Weather Underground text

Diari Resum Juny 3, 2016 Unitats:  Mètric    Imperial   Tant
« Previous Dia
SegĂźent Dia »
Diari Setmana Mensual Anual Personalitzada
  Maxima: Minima: Media:
Temperatura: -17.8 °C -10.9 °C -5.4 °C
Punt de rosada: -17.8 °C -15.7 °C -12.9 °C
Humitat: Humidity % 27 % 44 %
Wind Speed: 0 km/h 0 km/h 11.1 km/h
RĂ fegues de vent: 0 km/h - -
Vent:- - SW
Pression baro: 0 hPa 34164.7 hPa -
Precipitacions: 0 mm    
Historical Graphs
 
 
Dades de taula per Juny 3, 2016
Temps Temperatura Punt de rosada Pression baro Vent Wind Speed RĂ fegues de vent Humitat Rainfall Rate (Hourly)
-17.8 °C -17.8 °C 0 hPa Calm     Humidity % 0 mm
00:02 -8.1 °C -12.4 °C 34293.4 hPa NNE 6 km/h 6.3 km/h 60 % 0 mm
00:05 -10.2 °C -12.4 °C 34293.4 hPa Calm     76 % 0 mm
00:07 -8.1 °C -12.3 °C 34293.4 hPa NE 9.3 km/h 9.3 km/h 61 % 0 mm
00:15 -10.2 °C -12.4 °C 34293.4 hPa Calm     77 % 0 mm
00:25 -10.3 °C -12.6 °C 34327.3 hPa Calm     76 % 0 mm
00:35 -10.4 °C -12.6 °C 34293.4 hPa Calm     77 % 0 mm
00:45 -10.4 °C -12.6 °C 34293.4 hPa Calm     77 % 0 mm
01:05 -10.6 °C -12.7 °C 34327.3 hPa Calm     78 % 0 mm
01:15 -10.7 °C -13 °C 34327.3 hPa SSE 2.6 km/h 5.1 km/h 76 % 0 mm
01:25 -10.8 °C -13 °C 34327.3 hPa SW 5.1 km/h 5.1 km/h 77 % 0 mm
01:35 -10.9 °C -12.9 °C 34327.3 hPa Calm   5.1 km/h 79 % 0 mm
01:45 -10.9 °C -12.7 °C 34327.3 hPa Calm     80 % 0 mm
01:55 -10.7 °C -12.6 °C 34327.3 hPa Calm     80 % 0 mm
02:05 -10.5 °C -12.4 °C 34293.4 hPa Calm   2.6 km/h 80 % 0 mm
02:15 -10.2 °C -12.2 °C 34293.4 hPa Calm   5.1 km/h 79 % 0 mm
02:25 -9.9 °C -11.9 °C 34327.3 hPa ENE 2.6 km/h 2.6 km/h 79 % 0 mm
02:35 -9.7 °C -11.8 °C 34327.3 hPa ENE 2.6 km/h 5.1 km/h 78 % 0 mm
02:45 -9.6 °C -11.9 °C 34327.3 hPa ENE 2.6 km/h 5.1 km/h 76 % 0 mm
02:55 -9.4 °C -11.8 °C 34327.3 hPa ESE 5.1 km/h 5.1 km/h 76 % 0 mm
03:05 -9.7 °C -12 °C 34327.3 hPa SW 2.6 km/h 5.1 km/h 76 % 0 mm
03:15 -9.4 °C -11.7 °C 34327.3 hPa SW 2.6 km/h 5.1 km/h 76 % 0 mm
03:25 -9.1 °C -11.6 °C 34327.3 hPa SSW 5.1 km/h 5.1 km/h 75 % 0 mm
03:35 -8.7 °C -11.2 °C 34327.3 hPa SSW 2.6 km/h 5.1 km/h 75 % 0 mm
03:45 -8.4 °C -11.1 °C 34327.3 hPa SSW 2.6 km/h 2.6 km/h 73 % 0 mm
03:55 -8.1 °C -11 °C 34327.3 hPa Calm   7.7 km/h 71 % 0 mm
04:05 -7.7 °C -10.8 °C 34327.3 hPa SSW 2.6 km/h 5.1 km/h 70 % 0 mm
04:15 -7.7 °C -10.9 °C 34327.3 hPa SW 7.7 km/h 10.3 km/h 69 % 0 mm
04:25 -7.4 °C -10.7 °C 34327.3 hPa WSW 2.6 km/h 7.7 km/h 69 % 0 mm
04:35 -7.1 °C -10.6 °C 34327.3 hPa SW 5.1 km/h 10.3 km/h 67 % 0 mm
04:45 -6.7 °C -10.5 °C 34327.3 hPa SW 7.7 km/h 10.3 km/h 65 % 0 mm
04:55 -6.7 °C -10.5 °C 34327.3 hPa SSW 5.1 km/h 10.3 km/h 65 % 0 mm
05:05 -6.7 °C -10.7 °C 34327.3 hPa SW 7.7 km/h 12.9 km/h 63 % 0 mm
05:15 -6.4 °C -10.8 °C 34327.3 hPa SW 12.9 km/h 15.6 km/h 61 % 0 mm
05:25 -6.1 °C -10.4 °C 34327.3 hPa SW 2.6 km/h 12.9 km/h 61 % 0 mm
05:35 -5.9 °C -10.6 °C 34327.3 hPa WSW 5.1 km/h 12.9 km/h 59 % 0 mm
05:45 -5.7 °C -10.8 °C 34327.3 hPa WSW 7.7 km/h 10.3 km/h 56 % 0 mm
10:54 -5.5 °C -10.9 °C 34327.3 hPa SW 11.9 km/h 11.9 km/h 54 % 0 mm
10:59 -5.4 °C -10.7 °C 34327.3 hPa SE 11.9 km/h 11.9 km/h 55 % 0 mm
11:04 -5.1 °C -10.3 °C 34327.3 hPa WSW 6 km/h 6 km/h 55 % 0 mm
11:09 -5.2 °C -10.6 °C 34327.3 hPa South 15 km/h 15 km/h 54 % 0 mm
11:14 -5.2 °C -10.6 °C 34327.3 hPa NNE 6 km/h 6 km/h 54 % 0 mm
11:19 -5.1 °C -10.5 °C 34327.3 hPa WSW 15 km/h 15 km/h 54 % 0 mm
11:29 -4.6 °C -10.6 °C 34327.3 hPa SW 11.9 km/h 11.9 km/h 51 % 0 mm
11:34 -4.6 °C -10.5 °C 34327.3 hPa SW 11.9 km/h 11.9 km/h 51 % 0 mm
11:39 -4.4 °C -10.4 °C 34327.3 hPa NW 10.3 km/h 10.3 km/h 51 % 0 mm
11:44 -4.4 °C -10.4 °C 34327.3 hPa South 9 km/h 9 km/h 51 % 0 mm
11:49 -4.4 °C -10.6 °C 34327.3 hPa West 11.9 km/h 11.9 km/h 50 % 0 mm
11:59 -4.2 °C -10.6 °C 34327.3 hPa SW 15 km/h 15 km/h 49 % 0 mm
12:04 -3.9 °C -10.4 °C 34327.3 hPa SW 11.9 km/h 11.9 km/h 48 % 0 mm
12:09 -3.9 °C -10.5 °C 34327.3 hPa SW 9 km/h 9 km/h 48 % 0 mm
12:14 -3.7 °C -10.4 °C 34327.3 hPa SSW 15 km/h 15 km/h 47 % 0 mm
12:19 -3.6 °C -10.3 °C 34327.3 hPa SSW 11.9 km/h 11.9 km/h 47 % 0 mm
12:29 -3.7 °C -10.6 °C 34327.3 hPa SW 15 km/h 15 km/h 46 % 0 mm
12:34 -3.6 °C -10.5 °C 34293.4 hPa WSW 7.6 km/h 7.6 km/h 46 % 0 mm
12:39 -3.3 °C -10.1 °C 34293.4 hPa West 9 km/h 9 km/h 47 % 0 mm
12:44 -2.8 °C -9.9 °C 34293.4 hPa SE 9 km/h 9 km/h 45 % 0 mm
12:49 -2.9 °C -9.9 °C 34293.4 hPa ESE 15 km/h 15 km/h 46 % 0 mm
12:54 -3 °C -9.9 °C 34293.4 hPa NNE 15 km/h 15 km/h 46 % 0 mm
12:59 -2.8 °C -9.9 °C 34293.4 hPa SW 17.9 km/h 17.9 km/h 45 % 0 mm
13:04 -2.7 °C -10.1 °C 34256.2 hPa WSW 15 km/h 15 km/h 44 % 0 mm
13:09 -2.6 °C -10 °C 34256.2 hPa SW 9 km/h 9 km/h 44 % 0 mm
13:14 -2.5 °C -10.1 °C 34256.2 hPa SSW 15 km/h 15 km/h 43 % 0 mm
13:19 -2.2 °C -9.7 °C 34256.2 hPa WSW 9.3 km/h 9.3 km/h 44 % 0 mm
13:24 -2.5 °C -10.1 °C 34256.2 hPa SSE 17.9 km/h 17.9 km/h 43 % 0 mm
13:29 -2.3 °C -10.2 °C 34256.2 hPa SSW 26.9 km/h 26.9 km/h 42 % 0 mm
13:34 -2.4 °C -10.2 °C 34256.2 hPa SW 23.8 km/h 23.8 km/h 42 % 0 mm
13:39 -2.4 °C -10 °C 34256.2 hPa SSW 20.9 km/h 20.9 km/h 43 % 0 mm
13:44 -2 °C -9.7 °C 34256.2 hPa WSW 9.8 km/h 9.8 km/h 43 % 0 mm
13:49 -1.9 °C -9.6 °C 34222.3 hPa South 9.3 km/h 9.3 km/h 43 % 0 mm
13:54 -1.9 °C -9.8 °C 34222.3 hPa SW 19.6 km/h 19.6 km/h 42 % 0 mm
13:59 -2.2 °C -10.1 °C 34222.3 hPa SW 19.6 km/h 19.6 km/h 42 % 0 mm
14:04 -2.5 °C -10.5 °C 34222.3 hPa WSW 20.9 km/h 20.9 km/h 41 % 0 mm
14:14 -2.4 °C -10.4 °C 34222.3 hPa SSW 15 km/h 15 km/h 41 % 0 mm
14:24 -2.2 °C -10.4 °C 34222.3 hPa SW 11.9 km/h 11.9 km/h 40 % 0 mm
14:29 -1.8 °C -10.1 °C 34222.3 hPa SW 6 km/h 10.3 km/h 40 % 0 mm
14:34 -2.3 °C -10.7 °C 34222.3 hPa SW 17.9 km/h 17.9 km/h 39 % 0 mm
14:39 -2.4 °C -10.9 °C 34222.3 hPa SSW 25.1 km/h 25.1 km/h 39 % 0 mm
14:44 -2.4 °C -10.9 °C 34222.3 hPa SSW 15 km/h 15 km/h 39 % 0 mm
14:49 -2.3 °C -10.8 °C 34198.6 hPa SW 15.3 km/h 15.3 km/h 39 % 0 mm
14:54 -2.3 °C -11.2 °C 34198.6 hPa SW 17.9 km/h 17.9 km/h 37 % 0 mm
14:59 -2.3 °C -11.4 °C 34198.6 hPa SSW 15 km/h 15 km/h 36 % 0 mm
15:04 -2.3 °C -11.7 °C 34222.3 hPa WSW 32.8 km/h 32.8 km/h 35 % 0 mm
15:09 -2.3 °C -11.7 °C 34222.3 hPa SW 17.9 km/h 17.9 km/h 35 % 0 mm
15:14 -2.3 °C -11.9 °C 34222.3 hPa South 26.9 km/h 26.9 km/h 34 % 0 mm
15:20 -2.7 °C -12.2 °C 34198.6 hPa SW 12.9 km/h 33.6 km/h 34 % 0 mm
15:25 -2.9 °C -12.7 °C 34198.6 hPa SW 20.8 km/h 33.6 km/h 33 % 0 mm
15:30 -3.1 °C -12.4 °C 34198.6 hPa SW 5.1 km/h 20.8 km/h 35 % 0 mm
15:35 -3.3 °C -12.3 °C 34198.6 hPa SSW 5.1 km/h 28.5 km/h 36 % 0 mm
15:40 -3.4 °C -12 °C 34198.6 hPa SW 22 km/h 22 km/h 38 % 0 mm
15:45 -3.7 °C -12.2 °C 34198.6 hPa SW 7.7 km/h 25.9 km/h 38 % 0 mm
15:50 -3.4 °C -11.9 °C 34198.6 hPa West 18.3 km/h 18.3 km/h 38 % 0 mm
15:55 -3.4 °C -12 °C 34198.6 hPa SW 7.7 km/h 25.9 km/h 38 % 0 mm
16:00 -3.4 °C -12.4 °C 34198.6 hPa SW 15.6 km/h 25.9 km/h 36 % 0 mm
16:05 -3.2 °C -12.2 °C 34198.6 hPa SW 18.2 km/h 25.9 km/h 36 % 0 mm
16:10 -3.1 °C -12.4 °C 34198.6 hPa SW 15.6 km/h 31.1 km/h 35 % 0 mm
16:15 -3.2 °C -12.9 °C 34198.6 hPa SW 18.2 km/h 36.2 km/h 33 % 0 mm
16:20 -3.1 °C -12.7 °C 34198.6 hPa SW 12.9 km/h 28.5 km/h 34 % 0 mm
16:25 -3 °C -12.8 °C 34198.6 hPa SW 18.2 km/h 25.9 km/h 33 % 0 mm
16:30 -3.1 °C -13.1 °C 34198.6 hPa SW 20.8 km/h 36.2 km/h 32 % 0 mm
16:35 -2.8 °C -12.6 °C 34198.6 hPa SW 12.9 km/h 31.1 km/h 33 % 0 mm
16:40 -2.8 °C -12.8 °C 34198.6 hPa SW 18.2 km/h 31.1 km/h 32 % 0 mm
16:45 -2.9 °C -12.9 °C 34198.6 hPa WSW 17.9 km/h 17.9 km/h 32 % 0 mm
16:50 -2.9 °C -13.5 °C 34198.6 hPa WNW 27.7 km/h 27.7 km/h 30 % 0 mm
16:55 -3.1 °C -13.9 °C 34198.6 hPa SW 20.8 km/h 33.6 km/h 29 % 0 mm
17:00 -2.7 °C -13.6 °C 34198.6 hPa SW 7.7 km/h 20.8 km/h 29 % 0 mm
17:05 -2.9 °C -14 °C 34198.6 hPa SW 12.9 km/h 31.1 km/h 28 % 0 mm
17:10 -3.1 °C -13.9 °C 34198.6 hPa SW 15.6 km/h 31.1 km/h 29 % 0 mm
17:15 -3.1 °C -13.7 °C 34198.6 hPa SW 12.9 km/h 20.8 km/h 30 % 0 mm
17:20 -2.8 °C -13.4 °C 34164.7 hPa SW 7.7 km/h 15.6 km/h 30 % 0 mm
17:25 -2.9 °C -14.1 °C 34164.7 hPa SW 18.2 km/h 28.5 km/h 28 % 0 mm
17:30 -3.1 °C -14.2 °C 34164.7 hPa West 35.7 km/h 35.7 km/h 28 % 0 mm
17:35 -3.3 °C -14.7 °C 34164.7 hPa SW 20.8 km/h 38.8 km/h 27 % 0 mm
17:40 -3.3 °C -14.7 °C 34164.7 hPa SW 25.4 km/h 25.4 km/h 27 % 0 mm
17:45 -3.2 °C -14.3 °C 34164.7 hPa SW 26.9 km/h 26.9 km/h 28 % 0 mm
17:50 -3.4 °C -14.5 °C 34164.7 hPa WSW 30.6 km/h 30.6 km/h 28 % 0 mm
17:55 -3.6 °C -14.6 °C 34164.7 hPa SSW 26.9 km/h 26.9 km/h 28 % 0 mm
18:00 -3.8 °C -14.8 °C 34164.7 hPa SW 35.7 km/h 35.7 km/h 28 % 0 mm
18:05 -3.9 °C -14.9 °C 34164.7 hPa WSW 32.8 km/h 32.8 km/h 28 % 0 mm
18:10 -4 °C -14.7 °C 34164.7 hPa SW 15.6 km/h 33.6 km/h 29 % 0 mm
18:15 -4 °C -14.7 °C 34164.7 hPa SW 18.2 km/h 25.9 km/h 29 % 0 mm
18:20 -3.9 °C -14.9 °C 34164.7 hPa WSW 17.9 km/h 17.9 km/h 28 % 0 mm
18:25 -3.8 °C -14.5 °C 34164.7 hPa SSW 15 km/h 15 km/h 29 % 0 mm
18:30 -3.9 °C -14.7 °C 34164.7 hPa West 17.9 km/h 17.9 km/h 29 % 0 mm
18:40 -4 °C -14.7 °C 34164.7 hPa SW 12.9 km/h 18.2 km/h 29 % 0 mm
18:45 -4.2 °C -14.9 °C 34164.7 hPa SW 12.9 km/h 33.6 km/h 29 % 0 mm
18:50 -4.4 °C -15.1 °C 34164.7 hPa SW 23.3 km/h 33.6 km/h 29 % 0 mm
18:55 -4.5 °C -15.2 °C 34164.7 hPa SW 18.2 km/h 36.2 km/h 29 % 0 mm
19:00 -4.6 °C -14.9 °C 34164.7 hPa SW 12.9 km/h 23.3 km/h 30 % 0 mm
19:05 -4.7 °C -14.8 °C 34198.6 hPa SW 12.9 km/h 23.3 km/h 31 % 0 mm
19:10 -4.9 °C -14.9 °C 34198.6 hPa SW 5.1 km/h 20.8 km/h 31 % 0 mm
19:15 -5.1 °C -14.6 °C 34198.6 hPa SSW 9 km/h 9 km/h 33 % 0 mm
19:20 -5.1 °C -14.6 °C 34198.6 hPa SW 17.9 km/h 17.9 km/h 33 % 0 mm
19:25 -5.2 °C -14.4 °C 34198.6 hPa SSW 17.9 km/h 17.9 km/h 34 % 0 mm
19:30 -5.2 °C -14.4 °C 34198.6 hPa SW 11.9 km/h 11.9 km/h 34 % 0 mm
19:35 -5.1 °C -14.4 °C 34198.6 hPa SW 20.9 km/h 20.9 km/h 34 % 0 mm
19:40 -5.1 °C -14.4 °C 34198.6 hPa SW 11.1 km/h 11.1 km/h 34 % 0 mm
19:45 -5.2 °C -14.7 °C 34198.6 hPa SW 20.9 km/h 20.9 km/h 33 % 0 mm
19:50 -5.2 °C -14.7 °C 34198.6 hPa SW 9 km/h 9 km/h 33 % 0 mm
19:55 -5.3 °C -14.8 °C 34198.6 hPa SW 23.8 km/h 23.8 km/h 33 % 0 mm
20:00 -5.3 °C -14.8 °C 34198.6 hPa SW 9.3 km/h 9.3 km/h 33 % 0 mm
20:05 -5.3 °C -14.8 °C 34198.6 hPa South 15 km/h 15 km/h 33 % 0 mm
20:10 -5.3 °C -14.8 °C 34198.6 hPa SW 5.1 km/h 12.9 km/h 33 % 0 mm
20:15 -5.5 °C -14.9 °C 34198.6 hPa SSW 9 km/h 9 km/h 33 % 0 mm
20:20 -5.6 °C -14.8 °C 34198.6 hPa WSW 15 km/h 15 km/h 34 % 0 mm
20:25 -5.7 °C -14.9 °C 34198.6 hPa SW 15 km/h 15 km/h 34 % 0 mm
20:30 -5.8 °C -14.9 °C 34198.6 hPa SW 7.7 km/h 15.6 km/h 34 % 0 mm
20:35 -5.8 °C -15.1 °C 34198.6 hPa SW 5.1 km/h 12.9 km/h 34 % 0 mm
20:40 -5.9 °C -15.3 °C 34198.6 hPa WSW 6.3 km/h 6.3 km/h 33 % 0 mm
20:45 -6 °C -15.4 °C 34198.6 hPa SW 11.9 km/h 11.9 km/h 33 % 0 mm
20:50 -6.1 °C -15.7 °C 34198.6 hPa SW 9 km/h 9 km/h 32 % 0 mm
20:55 -6.2 °C -15.6 °C 34198.6 hPa SW 9 km/h 9 km/h 33 % 0 mm
21:00 -6.2 °C -15.6 °C 34198.6 hPa SW 11.9 km/h 11.9 km/h 33 % 0 mm
21:05 -6.2 °C -15.6 °C 34222.3 hPa WSW 9 km/h 9 km/h 33 % 0 mm
21:10 -6.3 °C -15.4 °C 34222.3 hPa WSW 9 km/h 9 km/h 34 % 0 mm
21:15 -6.4 °C -15.5 °C 34222.3 hPa West 9 km/h 9 km/h 34 % 0 mm
21:20 -6.4 °C -15.6 °C 34198.6 hPa SW 7.7 km/h 15.6 km/h 34 % 0 mm
21:25 -6.6 °C -15.7 °C 34198.6 hPa WSW 5.1 km/h 10.3 km/h 34 % 0 mm
21:30 -6.6 °C -15.7 °C 34198.6 hPa SW 6 km/h 6 km/h 34 % 0 mm
21:35 -6.7 °C -15.7 °C 34198.6 hPa SW 9 km/h 9 km/h 34 % 0 mm
21:40 -6.7 °C -15.6 °C 34198.6 hPa WSW 3.1 km/h 3.1 km/h 35 % 0 mm
21:45 -6.8 °C -15.6 °C 34198.6 hPa WSW 3.1 km/h   35 % 0 mm
21:55 -6.8 °C -15.4 °C 34222.3 hPa Calm     36 % 0 mm
22:00 -6.9 °C -15.5 °C 34222.3 hPa WSW 6 km/h 6 km/h 36 % 0 mm
22:10 -7.1 °C -15.4 °C 34222.3 hPa Calm   2.6 km/h 37 % 0 mm
22:15 -7.1 °C -15.3 °C 34222.3 hPa Calm     38 % 0 mm
22:20 -7.1 °C -15.3 °C 34222.3 hPa Calm     38 % 0 mm
22:25 -7.2 °C -15.3 °C 34222.3 hPa Calm   5.1 km/h 38 % 0 mm
22:30 -7.5 °C -15.4 °C 34222.3 hPa SSW 11.9 km/h 11.9 km/h 39 % 0 mm
22:35 -7.7 °C -15.6 °C 34222.3 hPa SW 5.1 km/h 7.7 km/h 39 % 0 mm
22:40 -7.8 °C -15.4 °C 34222.3 hPa SW 5.1 km/h 12.9 km/h 40 % 0 mm
22:50 -7.8 °C -15.2 °C 34256.2 hPa SW 9 km/h 9 km/h 41 % 0 mm
22:55 -7.8 °C -15.2 °C 34256.2 hPa WSW 2.6 km/h 5.1 km/h 41 % 0 mm
23:00 -7.8 °C -15.2 °C 34256.2 hPa WSW 9 km/h 9 km/h 41 % 0 mm
23:05 -7.8 °C -15.1 °C 34256.2 hPa WSW 2.6 km/h 5.1 km/h 42 % 0 mm
23:10 -7.8 °C -14.9 °C 34256.2 hPa Calm     43 % 0 mm
23:15 -7.8 °C -14.9 °C 34256.2 hPa NNW 3.1 km/h   43 % 0 mm
23:20 -7.8 °C -15.1 °C 34256.2 hPa NW 2.6 km/h 7.7 km/h 42 % 0 mm
23:30 -7.7 °C -15 °C 34256.2 hPa Calm   2.6 km/h 42 % 0 mm
23:35 -7.8 °C -15.1 °C 34256.2 hPa WSW 6 km/h 6 km/h 42 % 0 mm
23:40 -7.8 °C -14.9 °C 34256.2 hPa SSW 6 km/h 6 km/h 43 % 0 mm
23:45 -7.9 °C -15.1 °C 34256.2 hPa SW 6 km/h 6 km/h 43 % 0 mm
23:50 -8 °C -15.1 °C 34256.2 hPa West 6 km/h 6 km/h 43 % 0 mm
23:55 -7.9 °C -14.8 °C 34256.2 hPa West 3.1 km/h 3.1 km/h 44 % 0 mm
Meteo Sesrovires
Elogis d' Weather Underground - 4 mb

Guio original per  Jim McMurry - jmcmurry@mwt.net Adaptat per a la plantilla per  Wim van der Kuil - Leuven-Template.eu

Trobareu la nostra informacio del temps tambe a:

Weather Underground

AWEKAS